createdAt,value
2023-07-18T00:00:15.841Z,102243.91
2023-07-18T00:02:43.533Z,102250.22
2023-07-18T00:05:14.347Z,102245.06
2023-07-18T00:07:41.819Z,102245.06
2023-07-18T00:10:10.163Z,102246.16
2023-07-18T00:12:37.745Z,102253.47
2023-07-18T00:15:08.324Z,102250.00
2023-07-18T00:17:35.247Z,102246.50
2023-07-18T00:20:03.040Z,102240.28
2023-07-18T00:22:29.530Z,102238.72
2023-07-18T00:24:56.035Z,102237.66
2023-07-18T00:27:22.559Z,102226.06
2023-07-18T00:29:48.947Z,102232.44
2023-07-18T00:32:15.484Z,102233.47
2023-07-18T00:34:42.259Z,102229.88
2023-07-18T00:37:08.870Z,102229.88
2023-07-18T00:39:35.299Z,102227.19
2023-07-18T00:42:01.816Z,102229.97
2023-07-18T00:44:28.403Z,102226.47
2023-07-18T00:46:55.298Z,102228.38
2023-07-18T00:49:23.052Z,102226.56
2023-07-18T00:51:49.674Z,102230.22
2023-07-18T00:54:16.537Z,102232.34
2023-07-18T00:56:43.146Z,102229.75
2023-07-18T00:59:11.662Z,102231.75
2023-07-18T01:01:38.320Z,102234.53
2023-07-18T01:04:05.027Z,102233.75
2023-07-18T01:06:31.488Z,102230.88
2023-07-18T01:08:57.960Z,102222.81
2023-07-18T01:11:24.454Z,102229.38
2023-07-18T01:13:50.906Z,102235.03
2023-07-18T01:16:17.623Z,102232.50
2023-07-18T01:18:44.184Z,102227.31
2023-07-18T01:21:18.641Z,102229.78
2023-07-18T01:23:46.569Z,102232.41
2023-07-18T01:26:14.062Z,102237.09
2023-07-18T01:28:40.692Z,102237.09
2023-07-18T01:31:07.234Z,102233.75
2023-07-18T01:33:34.405Z,102228.19
2023-07-18T01:36:01.358Z,102235.19
2023-07-18T01:38:31.291Z,102237.09
2023-07-18T01:41:00.704Z,102234.56
2023-07-18T01:43:27.282Z,102226.44
2023-07-18T01:45:59.356Z,102228.34
2023-07-18T01:48:26.128Z,102222.34
2023-07-18T01:50:52.721Z,102214.31
2023-07-18T01:53:19.218Z,102217.09
2023-07-18T01:55:45.620Z,102211.59
2023-07-18T01:58:12.085Z,102213.50
2023-07-18T02:00:38.543Z,102213.75
2023-07-18T02:03:06.936Z,102218.47
2023-07-18T02:05:33.926Z,102213.06
2023-07-18T02:08:00.440Z,102217.66
2023-07-18T02:10:27.998Z,102208.06
2023-07-18T02:12:58.653Z,102202.72
2023-07-18T02:15:25.200Z,102201.13
2023-07-18T02:17:52.646Z,102194.63
2023-07-18T02:20:19.657Z,102206.31
2023-07-18T02:22:47.987Z,102200.38
2023-07-18T02:25:18.471Z,102199.69
2023-07-18T02:27:45.744Z,102199.50
2023-07-18T02:30:13.425Z,102201.50
2023-07-18T02:32:41.259Z,102203.41
2023-07-18T02:35:09.342Z,102199.03
2023-07-18T02:37:35.943Z,102198.31
2023-07-18T02:40:09.253Z,102205.72
2023-07-18T02:42:36.343Z,102201.91
2023-07-18T02:45:03.159Z,102202.78
2023-07-18T02:47:29.685Z,102198.50
2023-07-18T02:49:56.217Z,102191.25
2023-07-18T02:52:22.826Z,102191.09
2023-07-18T02:54:51.452Z,102183.94
2023-07-18T02:57:18.582Z,102184.03
2023-07-18T02:59:45.477Z,102184.19
2023-07-18T03:02:12.869Z,102186.16
2023-07-18T03:04:40.220Z,102189.75
2023-07-18T03:07:06.921Z,102190.53
2023-07-18T03:09:35.873Z,102194.28
2023-07-18T03:12:02.635Z,102193.47
2023-07-18T03:14:30.353Z,102196.34
2023-07-18T03:16:57.070Z,102195.69
2023-07-18T03:19:24.013Z,102199.41
2023-07-18T03:21:50.851Z,102206.63
2023-07-18T03:24:17.649Z,102196.78
2023-07-18T03:26:45.348Z,102201.47
2023-07-18T03:29:11.748Z,102201.56
2023-07-18T03:31:40.824Z,102199.88
2023-07-18T03:34:07.778Z,102207.19
2023-07-18T03:36:35.693Z,102200.69
2023-07-18T03:39:03.679Z,102207.09
2023-07-18T03:41:30.133Z,102211.63
2023-07-18T03:43:57.799Z,102210.75
2023-07-18T03:46:24.269Z,102217.91
2023-07-18T03:48:52.733Z,102217.13
2023-07-18T03:51:20.022Z,102212.50
2023-07-18T03:53:48.188Z,102206.06
2023-07-18T03:56:16.346Z,102207.91
2023-07-18T03:58:43.926Z,102215.06
2023-07-18T04:01:11.535Z,102206.88
2023-07-18T04:03:38.830Z,102198.53
2023-07-18T04:06:05.600Z,102203.78
2023-07-18T04:08:32.012Z,102201.16
2023-07-18T04:11:01.343Z,102194.97
2023-07-18T04:13:27.986Z,102199.41
2023-07-18T04:15:55.736Z,102198.78
2023-07-18T04:18:23.035Z,102193.44
2023-07-18T04:20:50.505Z,102184.16
2023-07-18T04:23:17.932Z,102184.22
2023-07-18T04:25:58.767Z,102190.28
2023-07-18T04:28:26.744Z,102176.84
2023-07-18T04:30:53.179Z,102182.91
2023-07-18T04:33:19.646Z,102186.25
2023-07-18T04:35:46.947Z,102181.63
2023-07-18T04:38:14.942Z,102180.59
2023-07-18T04:40:42.397Z,102188.56
2023-07-18T04:43:09.645Z,102193.72
2023-07-18T04:45:46.640Z,102180.13
2023-07-18T04:48:14.798Z,102192.75
2023-07-18T04:50:45.911Z,102179.16
2023-07-18T04:53:13.093Z,102182.66
2023-07-18T04:55:40.068Z,102180.59
2023-07-18T04:58:09.078Z,102181.09
2023-07-18T05:00:36.162Z,102177.97
2023-07-18T05:03:02.734Z,102180.34
2023-07-18T05:05:30.599Z,102179.84
2023-07-18T05:07:59.567Z,102175.91
2023-07-18T05:10:26.665Z,102178.22
2023-07-18T05:12:54.418Z,102170.53
2023-07-18T05:15:21.339Z,102177.38
2023-07-18T05:17:48.591Z,102169.63
2023-07-18T05:20:16.048Z,102164.84
2023-07-18T05:22:45.001Z,102168.94
2023-07-18T05:25:13.958Z,102170.44
2023-07-18T05:27:41.913Z,102167.31
2023-07-18T05:30:14.322Z,102170.47
2023-07-18T05:32:41.570Z,102170.09
2023-07-18T05:35:12.369Z,102172.19
2023-07-18T05:37:39.637Z,102169.06
2023-07-18T05:40:07.161Z,102169.56
2023-07-18T05:42:33.588Z,102167.38
2023-07-18T05:45:00.032Z,102173.31
2023-07-18T05:47:26.667Z,102169.63
2023-07-18T05:49:53.320Z,102169.53
2023-07-18T05:52:19.770Z,102160.47
2023-07-18T05:54:46.242Z,102161.03
2023-07-18T05:57:12.774Z,102167.81
2023-07-18T05:59:39.253Z,102170.34
2023-07-18T06:02:06.299Z,102165.78
2023-07-18T06:04:32.944Z,102172.69
2023-07-18T06:06:59.395Z,102163.31
2023-07-18T06:09:25.991Z,102166.56
2023-07-18T06:11:53.764Z,102168.00
2023-07-18T06:14:20.818Z,102179.25
2023-07-18T06:16:47.549Z,102181.69
2023-07-18T06:19:14.938Z,102177.91
2023-07-18T06:21:41.382Z,102180.88
2023-07-18T06:24:17.875Z,102180.50
2023-07-18T06:26:50.034Z,102182.72
2023-07-18T06:29:18.665Z,102184.28
2023-07-18T06:31:46.002Z,102173.91
2023-07-18T06:34:12.514Z,102168.13
2023-07-18T06:36:39.084Z,102170.53
2023-07-18T06:39:07.074Z,102178.50
2023-07-18T06:41:34.488Z,102179.19
2023-07-18T06:44:01.032Z,102176.88
2023-07-18T06:46:27.523Z,102164.63
2023-07-18T06:48:53.980Z,102165.34
2023-07-18T06:51:20.650Z,102166.69
2023-07-18T06:53:47.351Z,102166.94
2023-07-18T06:56:13.832Z,102171.78
2023-07-18T06:58:40.436Z,102174.22
2023-07-18T07:01:06.947Z,102165.47
2023-07-18T07:03:34.036Z,102167.56
2023-07-18T07:06:00.605Z,102171.72
2023-07-18T07:08:27.163Z,102165.09
2023-07-18T07:11:05.402Z,102164.59
2023-07-18T07:13:32.566Z,102164.81
2023-07-18T07:15:59.140Z,102163.09
2023-07-18T07:18:25.615Z,102165.13
2023-07-18T07:20:52.193Z,102163.66
2023-07-18T07:23:18.668Z,102165.84
2023-07-18T07:25:45.160Z,102161.06
2023-07-18T07:28:11.655Z,102164.34
2023-07-18T07:30:38.135Z,102152.03
2023-07-18T07:33:07.480Z,102144.47
2023-07-18T07:35:34.376Z,102157.53
2023-07-18T07:38:00.792Z,102154.81
2023-07-18T07:40:27.313Z,102145.22
2023-07-18T07:42:53.809Z,102150.44
2023-07-18T07:45:22.165Z,102141.84
2023-07-18T07:47:49.915Z,102137.84
2023-07-18T07:50:16.480Z,102140.88
2023-07-18T07:52:43.293Z,102136.09
2023-07-18T07:55:13.776Z,102140.09
2023-07-18T07:57:40.879Z,102138.72
2023-07-18T08:00:08.341Z,102144.28
2023-07-18T08:02:35.373Z,102137.63
2023-07-18T08:05:02.050Z,102134.88
2023-07-18T08:07:28.617Z,102127.13
2023-07-18T08:09:56.027Z,102127.25
2023-07-18T08:12:22.604Z,102121.00
2023-07-18T08:14:50.170Z,102121.56
2023-07-18T08:17:17.995Z,102121.09
2023-07-18T08:19:44.802Z,102111.88
2023-07-18T08:22:11.248Z,102114.56
2023-07-18T08:24:37.781Z,102117.47
2023-07-18T08:27:04.572Z,102112.09
2023-07-18T08:29:31.415Z,102121.56
2023-07-18T08:31:59.556Z,102122.19
2023-07-18T08:34:26.678Z,102119.84
2023-07-18T08:36:53.259Z,102116.16
2023-07-18T08:39:20.009Z,102111.03
2023-07-18T08:41:50.341Z,102112.06
2023-07-18T08:44:18.064Z,102112.28
2023-07-18T08:46:48.244Z,102118.09
2023-07-18T08:49:17.712Z,102117.38
2023-07-18T08:51:45.684Z,102108.81
2023-07-18T08:54:14.035Z,102107.50
2023-07-18T08:56:42.502Z,102106.50
2023-07-18T08:59:09.417Z,102108.00
2023-07-18T09:01:36.396Z,102110.47
2023-07-18T09:04:03.352Z,102101.66
2023-07-18T09:06:29.918Z,102096.72
2023-07-18T09:08:56.367Z,102091.53
2023-07-18T09:11:23.174Z,102089.16
2023-07-18T09:13:50.217Z,102091.41
2023-07-18T09:16:21.894Z,102091.25
2023-07-18T09:18:50.822Z,102085.41
2023-07-18T09:21:19.121Z,102082.13
2023-07-18T09:23:46.553Z,102081.75
2023-07-18T09:26:19.209Z,102078.00
2023-07-18T09:28:46.972Z,102081.63
2023-07-18T09:31:21.170Z,102077.50
2023-07-18T09:33:48.996Z,102077.28
2023-07-18T09:36:18.832Z,102074.53
2023-07-18T09:38:47.609Z,102077.69
2023-07-18T09:41:19.030Z,102073.00
2023-07-18T09:43:49.024Z,102077.59
2023-07-18T09:46:17.413Z,102065.47
2023-07-18T09:48:46.521Z,102065.78
2023-07-18T09:51:21.732Z,102060.34
2023-07-18T09:53:49.616Z,102078.69
2023-07-18T09:56:17.885Z,102062.56
2023-07-18T09:58:45.995Z,102068.47
2023-07-18T10:01:13.716Z,102062.56
2023-07-18T10:03:40.786Z,102063.47
2023-07-18T10:06:16.079Z,102063.88
2023-07-18T10:08:44.288Z,102055.25
2023-07-18T10:11:12.784Z,102061.00
2023-07-18T10:13:43.353Z,102048.91
2023-07-18T10:16:13.004Z,102047.31
2023-07-18T10:18:48.014Z,102048.56
2023-07-18T10:21:29.873Z,102047.88
2023-07-18T10:23:56.869Z,102039.72
2023-07-18T10:26:33.152Z,102048.03
2023-07-18T10:29:03.073Z,102035.66
2023-07-18T10:31:31.570Z,102028.78
2023-07-18T10:34:07.348Z,102032.84
2023-07-18T10:36:36.189Z,102018.97
2023-07-18T10:39:11.018Z,102023.72
2023-07-18T10:41:37.845Z,102018.09
2023-07-18T10:44:04.593Z,102013.44
2023-07-18T10:46:39.756Z,101998.56
2023-07-18T10:49:07.265Z,102009.41
2023-07-18T10:51:35.115Z,102004.34
2023-07-18T10:54:02.213Z,101995.81
2023-07-18T10:56:29.125Z,101997.00
2023-07-18T10:58:58.406Z,101992.78
2023-07-18T11:01:26.640Z,101989.19
2023-07-18T11:03:56.656Z,101994.97
2023-07-18T11:06:23.742Z,101985.28
2023-07-18T11:08:50.240Z,101981.34
2023-07-18T11:11:19.657Z,101984.09
2023-07-18T11:13:46.648Z,101980.47
2023-07-18T11:16:17.055Z,101975.63
2023-07-18T11:18:46.088Z,101976.91
2023-07-18T11:21:14.570Z,101989.47
2023-07-18T11:23:42.700Z,101986.75
2023-07-18T11:26:13.686Z,101996.94
2023-07-18T11:28:44.987Z,101989.53
2023-07-18T11:31:40.352Z,101983.47
2023-07-18T11:34:10.114Z,101970.00
2023-07-18T11:36:37.997Z,101966.84
2023-07-18T11:39:18.188Z,101963.91
2023-07-18T11:41:46.509Z,101962.75
2023-07-18T11:44:23.659Z,101964.41
2023-07-18T11:46:50.164Z,101959.63
2023-07-18T11:49:17.352Z,101952.66
2023-07-18T11:51:44.238Z,101950.38
2023-07-18T11:54:10.813Z,101946.47
2023-07-18T11:56:38.188Z,101943.59
2023-07-18T11:59:04.856Z,101952.03
2023-07-18T12:01:38.253Z,101951.84
2023-07-18T12:04:12.583Z,101940.63
2023-07-18T12:06:40.108Z,101942.75
2023-07-18T12:09:06.493Z,101931.38
2023-07-18T12:11:32.996Z,101939.53
2023-07-18T12:14:01.070Z,101939.00
2023-07-18T12:16:27.591Z,101928.59
2023-07-18T12:18:53.981Z,101927.13
2023-07-18T12:21:20.892Z,101926.19
2023-07-18T12:23:47.744Z,101916.25
2023-07-18T12:26:14.124Z,101926.25
2023-07-18T12:28:40.675Z,101924.41
2023-07-18T12:31:08.614Z,101918.25
2023-07-18T12:33:35.392Z,101910.00
2023-07-18T12:36:01.892Z,101907.34
2023-07-18T12:38:30.156Z,101915.13
2023-07-18T12:40:56.762Z,101909.19
2023-07-18T12:43:23.334Z,101913.59
2023-07-18T12:45:49.925Z,101916.88
2023-07-18T12:48:17.275Z,101917.03
2023-07-18T12:50:44.336Z,101913.38
2023-07-18T12:53:10.760Z,101918.00
2023-07-18T12:55:37.206Z,101913.00
2023-07-18T12:58:03.674Z,101905.84
2023-07-18T13:00:30.225Z,101904.63
2023-07-18T13:02:57.092Z,101898.38
2023-07-18T13:05:23.859Z,101894.25
2023-07-18T13:07:50.329Z,101901.25
2023-07-18T13:10:16.829Z,101890.31
2023-07-18T13:12:43.385Z,101879.84
2023-07-18T13:15:09.941Z,101876.13
2023-07-18T13:17:36.362Z,101876.41
2023-07-18T13:20:02.937Z,101864.88
2023-07-18T13:22:29.337Z,101871.06
2023-07-18T13:24:55.852Z,101876.28
2023-07-18T13:27:22.334Z,101875.06
2023-07-18T13:29:48.887Z,101869.13
2023-07-18T13:32:15.450Z,101870.06
2023-07-18T13:34:41.937Z,101866.94
2023-07-18T13:37:08.576Z,101851.38
2023-07-18T13:39:35.082Z,101851.25
2023-07-18T13:42:01.567Z,101846.25
2023-07-18T13:44:27.991Z,101844.16
2023-07-18T13:46:54.445Z,101837.44
2023-07-18T13:49:20.889Z,101830.53
2023-07-18T13:51:48.822Z,101832.25
2023-07-18T13:54:15.350Z,101825.84
2023-07-18T13:56:41.857Z,101823.63
2023-07-18T13:59:08.460Z,101823.28
2023-07-18T14:01:35.056Z,101825.75
2023-07-18T14:04:01.792Z,101824.41
2023-07-18T14:06:28.417Z,101818.25
2023-07-18T14:08:54.871Z,101815.72
2023-07-18T14:11:21.410Z,101814.41
2023-07-18T14:13:47.906Z,101818.91
2023-07-18T14:16:14.462Z,101810.41
2023-07-18T14:18:41.053Z,101801.72
2023-07-18T14:21:08.230Z,101804.75
2023-07-18T14:23:34.723Z,101798.38
2023-07-18T14:26:01.228Z,101797.59
2023-07-18T14:28:27.714Z,101792.59
2023-07-18T14:30:54.206Z,101788.63
2023-07-18T14:33:20.730Z,101778.44
2023-07-18T14:35:47.244Z,101788.91
2023-07-18T14:38:13.802Z,101777.63
2023-07-18T14:40:40.724Z,101774.13
2023-07-18T14:43:10.114Z,101777.78
2023-07-18T14:45:37.901Z,101777.00
2023-07-18T14:48:04.845Z,101774.13
2023-07-18T14:50:32.358Z,101776.66
2023-07-18T14:52:58.845Z,101772.84
2023-07-18T14:55:25.421Z,101772.09
2023-07-18T14:57:51.993Z,101769.22
2023-07-18T15:00:19.739Z,101768.13
2023-07-18T15:02:48.571Z,101768.56
2023-07-18T15:05:15.960Z,101776.09
2023-07-18T15:07:42.496Z,101773.28
2023-07-18T15:10:09.286Z,101769.22
2023-07-18T15:12:39.239Z,101772.75
2023-07-18T15:15:06.361Z,101771.69
2023-07-18T15:17:40.360Z,101765.22
2023-07-18T15:20:09.678Z,101768.31
2023-07-18T15:22:37.520Z,101764.03
2023-07-18T15:25:08.620Z,101768.56
2023-07-18T15:27:36.273Z,101768.41
2023-07-18T15:30:04.783Z,101772.19
2023-07-18T15:32:31.259Z,101761.50
2023-07-18T15:34:57.738Z,101759.69
2023-07-18T15:37:25.108Z,101766.88
2023-07-18T15:39:51.573Z,101758.59
2023-07-18T15:42:18.849Z,101763.75
2023-07-18T15:44:45.588Z,101758.53
2023-07-18T15:47:12.452Z,101753.16
2023-07-18T15:49:38.961Z,101757.53
2023-07-18T15:52:08.378Z,101752.09
2023-07-18T15:54:35.523Z,101749.13
2023-07-18T15:57:02.022Z,101749.06
2023-07-18T15:59:30.250Z,101745.00
2023-07-18T16:01:58.376Z,101734.88
2023-07-18T16:04:25.670Z,101736.88
2023-07-18T16:06:52.221Z,101741.06
2023-07-18T16:09:18.976Z,101736.84
2023-07-18T16:11:46.044Z,101731.25
2023-07-18T16:14:15.634Z,101730.22
2023-07-18T16:16:43.522Z,101718.94
2023-07-18T16:19:09.932Z,101718.97
2023-07-18T16:21:36.679Z,101716.56
2023-07-18T16:24:03.261Z,101707.72
2023-07-18T16:26:33.837Z,101706.53
2023-07-18T16:29:02.336Z,101702.38
2023-07-18T16:31:29.417Z,101704.06
2023-07-18T16:33:55.809Z,101699.47
2023-07-18T16:36:22.319Z,101701.22
2023-07-18T16:38:49.015Z,101701.34
2023-07-18T16:41:15.639Z,101701.34
2023-07-18T16:43:42.124Z,101696.88
2023-07-18T16:46:08.624Z,101701.66
2023-07-18T16:48:35.112Z,101697.09
2023-07-18T16:51:01.525Z,101693.59
2023-07-18T16:53:28.037Z,101681.19
2023-07-18T16:55:54.488Z,101690.06
2023-07-18T16:58:21.025Z,101693.13
2023-07-18T17:00:47.620Z,101690.97
2023-07-18T17:03:14.857Z,101689.56
2023-07-18T17:05:41.342Z,101683.38
2023-07-18T17:08:07.880Z,101693.66
2023-07-18T17:10:34.374Z,101680.16
2023-07-18T17:13:00.819Z,101679.31
2023-07-18T17:15:27.419Z,101681.59
2023-07-18T17:17:53.989Z,101671.06
2023-07-18T17:20:20.567Z,101678.22
2023-07-18T17:22:47.122Z,101675.22
2023-07-18T17:25:13.898Z,101670.34
2023-07-18T17:27:40.347Z,101672.00
2023-07-18T17:30:08.519Z,101669.72
2023-07-18T17:32:35.067Z,101674.66
2023-07-18T17:35:01.702Z,101678.41
2023-07-18T17:37:28.177Z,101677.56
2023-07-18T17:42:22.624Z,101675.84
2023-07-18T17:44:49.181Z,101676.06
2023-07-18T17:47:16.791Z,101675.75
2023-07-18T17:49:43.236Z,101673.56
2023-07-18T17:52:09.740Z,101674.91
2023-07-18T17:54:36.308Z,101671.84
2023-07-18T17:57:02.896Z,101676.06
2023-07-18T17:59:29.321Z,101672.78
2023-07-18T18:01:55.843Z,101674.22
2023-07-18T18:04:22.409Z,101668.63
2023-07-18T18:06:49.922Z,101672.16
2023-07-18T18:09:17.600Z,101684.47
2023-07-18T18:11:44.386Z,101674.88
2023-07-18T18:14:10.789Z,101682.00
2023-07-18T18:16:37.211Z,101669.91
2023-07-18T18:19:03.717Z,101672.06
2023-07-18T18:21:30.261Z,101666.00
2023-07-18T18:23:56.695Z,101663.44
2023-07-18T18:26:23.228Z,101674.28
2023-07-18T18:28:49.724Z,101674.91
2023-07-18T18:31:16.434Z,101683.69
2023-07-18T18:33:43.147Z,101682.41
2023-07-18T18:36:09.679Z,101686.63
2023-07-18T18:38:36.097Z,101685.63
2023-07-18T18:41:04.564Z,101684.75
2023-07-18T18:43:31.620Z,101675.66
2023-07-18T18:45:58.206Z,101675.09
2023-07-18T18:48:26.479Z,101675.09
2023-07-18T18:50:53.010Z,101667.19
2023-07-18T18:53:21.141Z,101667.63
2023-07-18T18:55:47.580Z,101683.19
2023-07-18T18:58:14.573Z,101678.88
2023-07-18T19:00:41.169Z,101684.13
2023-07-18T19:03:07.743Z,101685.16
2023-07-18T19:05:34.295Z,101675.50
2023-07-18T19:08:00.757Z,101680.25
2023-07-18T19:10:28.118Z,101684.56
2023-07-18T19:12:54.585Z,101678.09
2023-07-18T19:15:21.040Z,101683.69
2023-07-18T19:17:47.654Z,101674.03
2023-07-18T19:20:16.407Z,101676.31
2023-07-18T19:22:42.914Z,101671.56
2023-07-18T19:25:09.705Z,101674.16
2023-07-18T19:27:37.078Z,101675.31
2023-07-18T19:30:05.477Z,101671.50
2023-07-18T19:32:32.228Z,101679.88
2023-07-18T19:34:58.704Z,101678.13
2023-07-18T19:37:25.401Z,101668.63
2023-07-18T19:39:51.805Z,101665.69
2023-07-18T19:42:18.374Z,101666.84
2023-07-18T19:44:47.719Z,101675.91
2023-07-18T19:47:14.801Z,101687.25
2023-07-18T19:49:41.255Z,101693.13
2023-07-18T19:52:08.083Z,101690.53
2023-07-18T19:54:34.550Z,101698.59
2023-07-18T19:57:01.017Z,101696.00
2023-07-18T19:59:27.537Z,101682.75
2023-07-18T20:01:54.116Z,101685.88
2023-07-18T20:04:20.755Z,101694.38
2023-07-18T20:06:47.270Z,101692.91
2023-07-18T20:09:13.762Z,101689.88
2023-07-18T20:11:40.352Z,101679.31
2023-07-18T20:14:06.809Z,101669.53
2023-07-18T20:16:33.315Z,101672.81
2023-07-18T20:19:02.618Z,101659.88
2023-07-18T20:21:30.268Z,101656.69
2023-07-18T20:23:57.066Z,101654.22
2023-07-18T20:26:23.625Z,101646.91
2023-07-18T20:28:50.124Z,101636.97
2023-07-18T20:31:17.067Z,101634.78
2023-07-18T20:33:43.869Z,101627.00
2023-07-18T20:36:10.511Z,101635.56
2023-07-18T20:38:37.231Z,101649.63
2023-07-18T20:41:04.472Z,101654.28
2023-07-18T20:43:32.588Z,101655.38
2023-07-18T20:46:01.976Z,101660.47
2023-07-18T20:48:30.156Z,101661.47
2023-07-18T20:50:58.321Z,101657.81
2023-07-18T20:53:25.835Z,101655.13
2023-07-18T20:55:52.278Z,101662.47
2023-07-18T20:58:18.710Z,101662.09
2023-07-18T21:00:45.505Z,101657.75
2023-07-18T21:03:12.796Z,101654.69
2023-07-18T21:05:39.892Z,101653.69
2023-07-18T21:08:07.296Z,101649.63
2023-07-18T21:10:34.569Z,101648.75
2023-07-18T21:13:01.546Z,101649.78
2023-07-18T21:15:28.262Z,101657.00
2023-07-18T21:17:55.171Z,101650.53
2023-07-18T21:20:21.957Z,101649.31
2023-07-18T21:22:48.431Z,101646.78
2023-07-18T21:25:14.998Z,101640.25
2023-07-18T21:27:41.392Z,101640.91
2023-07-18T21:30:08.757Z,101645.09
2023-07-18T21:32:36.285Z,101647.09
2023-07-18T21:35:03.846Z,101633.13
2023-07-18T21:37:30.399Z,101639.19
2023-07-18T21:39:56.912Z,101635.84
2023-07-18T21:42:23.518Z,101637.22
2023-07-18T21:44:50.089Z,101631.91
2023-07-18T21:47:16.776Z,101629.16
2023-07-18T21:49:43.231Z,101621.63
2023-07-18T21:52:09.691Z,101622.88
2023-07-18T21:54:36.146Z,101621.50
2023-07-18T21:57:02.784Z,101627.94
2023-07-18T21:59:29.488Z,101620.16
2023-07-18T22:01:56.000Z,101618.53
2023-07-18T22:04:22.812Z,101619.03
2023-07-18T22:06:49.324Z,101617.69
2023-07-18T22:09:15.784Z,101626.22
2023-07-18T22:11:42.367Z,101621.88
2023-07-18T22:14:08.888Z,101626.06
2023-07-18T22:16:35.349Z,101621.34
2023-07-18T22:19:01.796Z,101620.59
2023-07-18T22:21:28.315Z,101610.09
2023-07-18T22:23:55.242Z,101616.03
2023-07-18T22:26:21.652Z,101614.38
2023-07-18T22:28:48.184Z,101615.63
2023-07-18T22:31:14.657Z,101616.22
2023-07-18T22:33:41.628Z,101619.56
2023-07-18T22:36:08.203Z,101602.75
2023-07-18T22:38:34.646Z,101616.47
2023-07-18T22:41:03.447Z,101607.75
2023-07-18T22:43:30.416Z,101600.72
2023-07-18T22:45:56.915Z,101607.88
2023-07-18T22:48:23.315Z,101612.22
2023-07-18T22:50:53.107Z,101608.63
2023-07-18T22:53:20.026Z,101607.75
2023-07-18T22:55:50.225Z,101605.81
2023-07-18T22:58:17.720Z,101593.09
2023-07-18T23:00:44.461Z,101593.28
2023-07-18T23:03:11.032Z,101593.53
2023-07-18T23:05:37.615Z,101586.59
2023-07-18T23:08:05.544Z,101598.97
2023-07-18T23:10:33.044Z,101598.09
2023-07-18T23:12:59.886Z,101592.88
2023-07-18T23:15:27.015Z,101593.38
2023-07-18T23:17:53.674Z,101593.63
2023-07-18T23:20:20.213Z,101593.50
2023-07-18T23:22:47.140Z,101594.25
2023-07-18T23:25:13.686Z,101592.63
2023-07-18T23:27:40.205Z,101589.38
2023-07-18T23:30:07.649Z,101586.53
2023-07-18T23:32:34.323Z,101583.81
2023-07-18T23:35:00.912Z,101585.44
2023-07-18T23:37:27.483Z,101579.25
2023-07-18T23:39:54.019Z,101572.47
2023-07-18T23:42:20.546Z,101571.63
2023-07-18T23:44:47.044Z,101574.47
2023-07-18T23:47:13.525Z,101569.34
2023-07-18T23:49:40.343Z,101575.44
2023-07-18T23:52:07.167Z,101578.16
2023-07-18T23:54:33.638Z,101571.75
2023-07-18T23:57:00.104Z,101576.44
2023-07-18T23:59:26.503Z,101575.66
